createdAt,value
2019-03-09T00:00:32.369Z,11.40
2019-03-09T00:03:01.034Z,11.40
2019-03-09T00:05:29.738Z,11.20
2019-03-09T00:07:58.402Z,11.30
2019-03-09T00:10:27.046Z,11.20
2019-03-09T00:12:55.734Z,11.10
2019-03-09T00:15:24.596Z,11.00
2019-03-09T00:17:53.282Z,10.80
2019-03-09T00:20:21.939Z,10.70
2019-03-09T00:22:52.163Z,10.60
2019-03-09T00:25:22.419Z,10.50
2019-03-09T00:28:02.202Z,10.60
2019-03-09T00:30:48.541Z,10.60
2019-03-09T00:33:17.192Z,10.60
2019-03-09T00:35:46.361Z,10.50
2019-03-09T00:38:15.014Z,10.40
2019-03-09T00:40:43.715Z,10.30
2019-03-09T00:43:12.354Z,10.20
2019-03-09T00:45:41.007Z,10.30
2019-03-09T00:48:09.703Z,10.20
2019-03-09T00:50:38.346Z,10.20
2019-03-09T00:53:07.034Z,10.20
2019-03-09T00:55:35.688Z,10.20
2019-03-09T00:58:04.339Z,10.20
2019-03-09T01:00:33.013Z,10.20
2019-03-09T01:03:01.667Z,10.30
2019-03-09T01:05:30.385Z,10.30
2019-03-09T01:07:59.022Z,10.20
2019-03-09T01:10:27.679Z,10.10
2019-03-09T01:12:56.377Z,10.00
2019-03-09T01:15:25.007Z,9.90
2019-03-09T01:17:53.708Z,9.80
2019-03-09T01:20:22.352Z,9.80
2019-03-09T01:22:51.001Z,9.70
2019-03-09T01:25:19.685Z,9.60
2019-03-09T01:27:48.333Z,9.70
2019-03-09T01:30:18.122Z,9.80
2019-03-09T01:32:46.772Z,9.80
2019-03-09T01:35:15.434Z,9.80
2019-03-09T01:37:44.128Z,9.90
2019-03-09T01:40:14.861Z,9.90
2019-03-09T01:42:43.546Z,10.00
2019-03-09T01:45:14.097Z,10.00
2019-03-09T01:47:42.788Z,10.00
2019-03-09T01:50:11.456Z,10.00
2019-03-09T01:52:40.089Z,10.00
2019-03-09T01:55:13.221Z,10.10
2019-03-09T01:57:41.880Z,10.00
2019-03-09T02:00:13.439Z,9.90
2019-03-09T02:02:42.073Z,9.90
2019-03-09T02:05:10.835Z,9.90
2019-03-09T02:07:39.513Z,9.90
2019-03-09T02:10:10.825Z,9.90
2019-03-09T02:12:39.535Z,9.70
2019-03-09T02:15:10.579Z,9.60
2019-03-09T02:17:39.227Z,9.40
2019-03-09T02:20:13.264Z,9.40
2019-03-09T02:22:41.929Z,9.30
2019-03-09T02:25:11.825Z,9.30
2019-03-09T02:27:40.461Z,9.20
2019-03-09T02:30:16.333Z,9.20
2019-03-09T02:32:44.997Z,9.20
2019-03-09T02:35:15.162Z,9.20
2019-03-09T02:37:43.852Z,9.20
2019-03-09T02:40:14.451Z,9.20
2019-03-09T02:42:43.126Z,9.20
2019-03-09T02:45:14.846Z,9.20
2019-03-09T02:47:43.558Z,9.20
2019-03-09T02:50:15.049Z,9.20
2019-03-09T02:52:43.694Z,9.20
2019-03-09T02:55:12.984Z,9.10
2019-03-09T02:57:41.611Z,8.90
2019-03-09T03:00:19.109Z,8.90
2019-03-09T03:03:05.473Z,8.90
2019-03-09T03:05:34.139Z,8.90
2019-03-09T03:08:02.806Z,9.00
2019-03-09T03:10:31.470Z,9.00
2019-03-09T03:13:00.174Z,9.00
2019-03-09T03:15:31.050Z,9.00
2019-03-09T03:17:59.679Z,9.10
2019-03-09T03:20:28.384Z,9.00
2019-03-09T03:22:57.040Z,8.90
2019-03-09T03:25:25.720Z,8.90
2019-03-09T03:27:54.389Z,8.80
2019-03-09T03:30:23.233Z,8.80
2019-03-09T03:32:53.733Z,8.60
2019-03-09T03:35:22.367Z,8.50
2019-03-09T03:37:51.056Z,8.50
2019-03-09T03:40:19.701Z,8.50
2019-03-09T03:42:48.416Z,8.70
2019-03-09T03:45:17.081Z,8.70
2019-03-09T03:47:45.716Z,8.80
2019-03-09T03:50:14.400Z,8.80
2019-03-09T03:52:43.073Z,8.90
2019-03-09T03:55:26.658Z,8.90
2019-03-09T03:57:55.348Z,8.90
2019-03-09T04:00:24.053Z,8.90
2019-03-09T04:02:52.687Z,8.90
2019-03-09T04:05:21.355Z,8.90
2019-03-09T04:07:50.031Z,8.90
2019-03-09T04:10:18.691Z,9.00
2019-03-09T04:12:47.375Z,8.90
2019-03-09T04:15:16.027Z,8.90
2019-03-09T04:17:44.677Z,8.90
2019-03-09T04:20:13.484Z,8.80
2019-03-09T04:22:42.112Z,8.70
2019-03-09T04:25:11.405Z,8.60
2019-03-09T04:27:40.089Z,8.60
2019-03-09T04:30:11.250Z,8.60
2019-03-09T04:32:39.941Z,8.60
2019-03-09T04:35:10.152Z,8.60
2019-03-09T04:37:38.855Z,8.50
2019-03-09T04:40:09.365Z,8.50
2019-03-09T04:42:37.996Z,8.50
2019-03-09T04:45:13.522Z,8.50
2019-03-09T04:47:42.161Z,8.50
2019-03-09T04:50:13.324Z,8.50
2019-03-09T04:52:41.967Z,8.60
2019-03-09T04:55:10.654Z,8.60
2019-03-09T04:57:39.302Z,8.60
2019-03-09T05:00:12.953Z,8.60
2019-03-09T05:02:41.669Z,8.70
2019-03-09T05:05:11.523Z,8.70
2019-03-09T05:07:49.196Z,8.70
2019-03-09T05:10:20.954Z,8.80
2019-03-09T05:12:58.622Z,8.80
2019-03-09T05:15:27.290Z,8.80
2019-03-09T05:17:55.939Z,8.70
2019-03-09T05:20:24.626Z,8.70
2019-03-09T05:22:53.282Z,8.80
2019-03-09T05:25:21.981Z,8.70
2019-03-09T05:27:50.621Z,8.80
2019-03-09T05:30:39.002Z,8.80
2019-03-09T05:33:07.657Z,8.80
2019-03-09T05:35:36.306Z,8.70
2019-03-09T05:38:05.090Z,8.60
2019-03-09T05:40:33.739Z,8.60
2019-03-09T05:43:02.465Z,8.60
2019-03-09T05:45:31.107Z,8.50
2019-03-09T05:47:59.773Z,8.50
2019-03-09T05:50:28.459Z,8.60
2019-03-09T05:53:14.877Z,8.70
2019-03-09T05:55:43.579Z,8.70
2019-03-09T05:58:12.210Z,8.80
2019-03-09T06:00:41.689Z,8.90
2019-03-09T06:03:10.330Z,8.90
2019-03-09T06:05:41.137Z,9.00
2019-03-09T06:08:09.782Z,9.10
2019-03-09T06:10:39.550Z,9.20
2019-03-09T06:13:08.172Z,9.20
2019-03-09T06:15:36.827Z,9.40
2019-03-09T06:18:06.428Z,9.50
2019-03-09T06:20:35.360Z,9.60
2019-03-09T06:23:04.050Z,9.70
2019-03-09T06:25:32.697Z,10.30
2019-03-09T06:28:01.367Z,10.90
2019-03-09T06:30:30.066Z,11.40
2019-03-09T06:33:27.702Z,12.10
2019-03-09T06:36:17.509Z,13.10
2019-03-09T06:38:54.231Z,14.00
2019-03-09T06:41:26.036Z,14.90
2019-03-09T06:43:54.687Z,15.60
2019-03-09T06:46:23.409Z,16.40
2019-03-09T06:48:52.032Z,16.30
2019-03-09T06:51:20.723Z,16.20
2019-03-09T06:53:49.380Z,15.30
2019-03-09T06:56:18.495Z,14.70
2019-03-09T06:58:47.261Z,14.10
2019-03-09T07:01:24.806Z,13.70
2019-03-09T07:03:53.522Z,13.30
2019-03-09T07:06:22.176Z,13.00
2019-03-09T07:08:50.827Z,13.00
2019-03-09T07:11:19.512Z,13.00
2019-03-09T07:13:52.970Z,13.00
2019-03-09T07:16:18.546Z,12.80
2019-03-09T07:18:47.199Z,13.00
2019-03-09T07:21:15.838Z,12.70
2019-03-09T07:23:44.514Z,12.70
2019-03-09T07:26:13.178Z,12.70
2019-03-09T07:28:41.881Z,13.60
2019-03-09T07:31:10.524Z,15.30
2019-03-09T07:33:39.179Z,17.10
2019-03-09T07:36:07.912Z,18.50
2019-03-09T07:38:36.574Z,19.30
2019-03-09T07:41:09.963Z,20.60
2019-03-09T07:43:44.659Z,21.30
2019-03-09T07:46:13.355Z,22.10
2019-03-09T07:48:42.500Z,22.00
2019-03-09T07:51:11.153Z,22.90
2019-03-09T07:53:39.812Z,22.90
2019-03-09T07:56:08.469Z,23.40
2019-03-09T07:58:37.168Z,22.80
2019-03-09T08:01:08.834Z,23.10
2019-03-09T08:03:40.571Z,23.20
2019-03-09T08:06:09.199Z,22.50
2019-03-09T08:08:37.850Z,22.20
2019-03-09T08:11:06.535Z,22.90
2019-03-09T08:13:35.198Z,24.00
2019-03-09T08:16:03.886Z,25.30
2019-03-09T08:18:32.552Z,23.90
2019-03-09T08:21:01.242Z,21.90
2019-03-09T08:23:29.902Z,20.80
2019-03-09T08:25:58.535Z,19.70
2019-03-09T08:28:27.244Z,18.80
2019-03-09T08:30:55.902Z,18.30
2019-03-09T08:33:24.592Z,17.90
2019-03-09T08:35:53.257Z,17.60
2019-03-09T08:38:21.927Z,17.70
2019-03-09T08:40:50.578Z,18.20
2019-03-09T08:43:19.235Z,18.60
2019-03-09T08:45:47.927Z,18.40
2019-03-09T08:48:16.595Z,18.20
2019-03-09T08:50:45.258Z,18.00
2019-03-09T08:53:13.915Z,18.20
2019-03-09T08:55:42.626Z,18.20
2019-03-09T08:58:11.289Z,18.30
2019-03-09T09:00:40.096Z,18.60
2019-03-09T09:03:08.754Z,18.80
2019-03-09T09:05:39.513Z,19.00
2019-03-09T09:08:07.756Z,19.80
2019-03-09T09:10:36.429Z,21.80
2019-03-09T09:13:05.101Z,23.40
2019-03-09T09:15:33.801Z,24.00
2019-03-09T09:18:02.440Z,24.80
2019-03-09T09:20:31.143Z,25.50
2019-03-09T09:22:59.804Z,25.70
2019-03-09T09:25:28.492Z,25.80
2019-03-09T09:27:57.148Z,26.00
2019-03-09T09:30:28.699Z,26.10
2019-03-09T09:32:57.399Z,26.20
2019-03-09T09:35:26.051Z,26.00
2019-03-09T09:37:54.758Z,26.00
2019-03-09T09:40:24.821Z,26.00
2019-03-09T09:42:53.533Z,26.60
2019-03-09T09:45:22.238Z,26.60
2019-03-09T09:47:50.870Z,26.70
2019-03-09T09:50:19.556Z,26.70
2019-03-09T09:52:48.205Z,26.30
2019-03-09T09:55:18.512Z,26.40
2019-03-09T09:57:47.191Z,26.40
2019-03-09T10:00:21.722Z,26.90
2019-03-09T10:02:50.406Z,27.00
2019-03-09T10:05:19.056Z,27.20
2019-03-09T10:07:47.740Z,27.30
2019-03-09T10:10:18.308Z,27.40
2019-03-09T10:12:47.004Z,27.30
2019-03-09T10:15:18.066Z,27.40
2019-03-09T10:17:46.840Z,27.10
2019-03-09T10:20:15.522Z,26.50
2019-03-09T10:22:44.190Z,26.20
2019-03-09T10:25:12.875Z,25.80
2019-03-09T10:27:41.528Z,25.80
2019-03-09T10:30:16.245Z,26.30
2019-03-09T10:32:44.927Z,26.10
2019-03-09T10:35:13.559Z,25.00
2019-03-09T10:37:42.276Z,25.00
2019-03-09T10:40:13.582Z,24.60
2019-03-09T10:42:42.302Z,24.60
2019-03-09T10:45:13.334Z,24.60
2019-03-09T10:47:42.007Z,24.40
2019-03-09T10:50:13.192Z,24.40
2019-03-09T10:52:41.842Z,24.70
2019-03-09T10:55:13.399Z,24.20
2019-03-09T10:57:42.052Z,24.40
2019-03-09T11:00:25.738Z,24.50
2019-03-09T11:02:54.383Z,25.00
2019-03-09T11:05:23.034Z,24.70
2019-03-09T11:07:51.727Z,24.40
2019-03-09T11:10:20.377Z,24.30
2019-03-09T11:12:49.075Z,23.90
2019-03-09T11:15:17.729Z,24.00
2019-03-09T11:17:46.388Z,24.00
2019-03-09T11:20:17.434Z,23.60
2019-03-09T11:22:46.084Z,23.90
2019-03-09T11:25:14.771Z,24.90
2019-03-09T11:27:43.410Z,25.90
2019-03-09T11:30:21.083Z,26.30
2019-03-09T11:32:49.747Z,26.50
2019-03-09T11:35:18.391Z,26.00
2019-03-09T11:37:47.080Z,26.00
2019-03-09T11:40:15.719Z,25.40
2019-03-09T11:42:44.398Z,25.30
2019-03-09T11:45:15.266Z,25.50
2019-03-09T11:47:43.916Z,25.30
2019-03-09T11:50:14.207Z,25.10
2019-03-09T11:52:42.878Z,24.80
2019-03-09T11:55:13.192Z,24.50
2019-03-09T11:57:41.829Z,24.30
2019-03-09T12:00:14.515Z,24.00
2019-03-09T12:02:43.199Z,23.70
2019-03-09T12:05:11.862Z,23.40
2019-03-09T12:07:40.568Z,23.30
2019-03-09T12:10:11.023Z,23.40
2019-03-09T12:12:39.695Z,23.30
2019-03-09T12:15:14.002Z,22.90
2019-03-09T12:17:42.672Z,22.50
2019-03-09T12:20:12.975Z,22.20
2019-03-09T12:22:41.628Z,22.10
2019-03-09T12:25:15.155Z,21.80
2019-03-09T12:27:43.846Z,21.40
2019-03-09T12:30:20.212Z,21.30
2019-03-09T12:32:48.949Z,21.40
2019-03-09T12:35:17.593Z,21.20
2019-03-09T12:37:46.243Z,21.00
2019-03-09T12:40:18.956Z,20.80
2019-03-09T12:42:47.608Z,20.60
2019-03-09T12:45:16.698Z,20.70
2019-03-09T12:47:45.363Z,20.70
2019-03-09T12:50:21.725Z,20.70
2019-03-09T12:52:50.372Z,20.60
2019-03-09T12:55:19.024Z,20.70
2019-03-09T12:57:47.707Z,20.40
2019-03-09T13:00:40.255Z,20.60
2019-03-09T13:03:08.188Z,20.90
2019-03-09T13:05:36.856Z,21.10
2019-03-09T13:08:05.511Z,21.40
2019-03-09T13:10:34.203Z,21.50
2019-03-09T13:13:02.854Z,21.30
2019-03-09T13:15:31.559Z,21.20
2019-03-09T13:18:00.200Z,21.40
2019-03-09T13:20:28.853Z,21.50
2019-03-09T13:22:57.539Z,21.70
2019-03-09T13:25:26.174Z,22.00
2019-03-09T13:27:54.875Z,22.00
2019-03-09T13:30:24.326Z,21.80
2019-03-09T13:32:52.965Z,21.90
2019-03-09T13:35:21.665Z,21.70
2019-03-09T13:37:50.325Z,21.50
2019-03-09T13:40:19.014Z,21.50
2019-03-09T13:42:47.677Z,21.30
2019-03-09T13:45:17.323Z,21.40
2019-03-09T13:47:46.037Z,21.40
2019-03-09T13:50:15.382Z,21.40
2019-03-09T13:52:44.164Z,21.50
2019-03-09T13:55:13.591Z,21.30
2019-03-09T13:57:42.250Z,21.30
2019-03-09T14:00:14.062Z,21.10
2019-03-09T14:02:42.718Z,21.00
2019-03-09T14:05:11.417Z,21.10
2019-03-09T14:07:40.060Z,21.10
2019-03-09T14:10:11.213Z,21.30
2019-03-09T14:12:39.914Z,21.30
2019-03-09T14:15:11.323Z,21.10
2019-03-09T14:17:40.020Z,21.20
2019-03-09T14:20:10.866Z,21.30
2019-03-09T14:22:39.510Z,21.20
2019-03-09T14:25:10.383Z,21.00
2019-03-09T14:27:39.046Z,20.80
2019-03-09T14:30:16.677Z,20.60
2019-03-09T14:32:45.334Z,20.50
2019-03-09T14:35:13.984Z,20.30
2019-03-09T14:37:42.695Z,20.10
2019-03-09T14:40:13.546Z,19.90
2019-03-09T14:42:42.239Z,19.70
2019-03-09T14:45:21.699Z,19.60
2019-03-09T14:47:50.402Z,19.50
2019-03-09T14:50:19.062Z,19.50
2019-03-09T14:52:47.698Z,19.50
2019-03-09T14:55:16.389Z,19.50
2019-03-09T14:57:45.045Z,19.30
2019-03-09T15:00:22.135Z,19.30
2019-03-09T15:02:50.797Z,19.20
2019-03-09T15:05:19.446Z,19.20
2019-03-09T15:07:48.124Z,19.10
2019-03-09T15:10:16.774Z,19.20
2019-03-09T15:12:45.480Z,19.20
2019-03-09T15:15:16.390Z,19.20
2019-03-09T15:17:45.047Z,19.10
2019-03-09T15:20:15.332Z,19.00
2019-03-09T15:22:43.966Z,19.00
2019-03-09T15:25:15.515Z,18.90
2019-03-09T15:27:44.185Z,18.90
2019-03-09T15:30:17.756Z,18.90
2019-03-09T15:32:46.409Z,18.90
2019-03-09T15:35:16.917Z,18.80
2019-03-09T15:37:45.613Z,18.70
2019-03-09T15:40:17.956Z,18.80
2019-03-09T15:42:46.686Z,18.80
2019-03-09T15:45:19.280Z,18.70
2019-03-09T15:47:47.927Z,18.70
2019-03-09T15:50:19.714Z,18.60
2019-03-09T15:52:48.372Z,18.50
2019-03-09T15:55:17.108Z,18.50
2019-03-09T15:57:45.755Z,18.50
2019-03-09T16:00:22.884Z,18.40
2019-03-09T16:02:51.470Z,18.40
2019-03-09T16:05:20.140Z,18.50
2019-03-09T16:07:48.920Z,18.50
2019-03-09T16:10:21.885Z,18.60
2019-03-09T16:12:50.575Z,18.50
2019-03-09T16:15:19.247Z,18.50
2019-03-09T16:17:47.896Z,18.60
2019-03-09T16:20:22.189Z,18.50
2019-03-09T16:22:50.850Z,18.40
2019-03-09T16:25:21.223Z,18.40
2019-03-09T16:27:49.880Z,18.20
2019-03-09T16:30:19.984Z,18.10
2019-03-09T16:32:48.738Z,18.10
2019-03-09T16:35:22.193Z,18.10
2019-03-09T16:37:52.210Z,18.10
2019-03-09T16:40:26.122Z,18.00
2019-03-09T16:42:54.832Z,18.00
2019-03-09T16:45:23.486Z,18.00
2019-03-09T16:47:52.127Z,17.90
2019-03-09T16:50:20.832Z,17.80
2019-03-09T16:52:49.475Z,17.60
2019-03-09T16:55:18.184Z,17.40
2019-03-09T16:57:46.813Z,17.20
2019-03-09T17:00:20.477Z,17.20
2019-03-09T17:02:50.239Z,17.20
2019-03-09T17:05:18.945Z,17.20
2019-03-09T17:07:47.646Z,17.10
2019-03-09T17:10:19.167Z,17.10
2019-03-09T17:12:47.597Z,17.00
2019-03-09T17:15:18.739Z,17.00
2019-03-09T17:17:47.403Z,16.80
2019-03-09T17:20:17.306Z,16.80
2019-03-09T17:22:45.955Z,16.70
2019-03-09T17:25:14.721Z,16.60
2019-03-09T17:27:43.400Z,16.60
2019-03-09T17:30:20.289Z,16.50
2019-03-09T17:32:49.028Z,16.50
2019-03-09T17:35:17.681Z,16.50
2019-03-09T17:37:46.319Z,16.50
2019-03-09T17:40:17.019Z,16.40
2019-03-09T17:42:45.635Z,16.30
2019-03-09T17:45:19.876Z,16.20
2019-03-09T17:47:48.543Z,16.10
2019-03-09T17:50:17.189Z,16.00
2019-03-09T17:52:45.883Z,16.00
2019-03-09T17:55:14.556Z,16.00
2019-03-09T17:57:43.239Z,15.90
2019-03-09T18:00:20.905Z,16.00
2019-03-09T18:02:49.622Z,15.90
2019-03-09T18:05:19.744Z,15.80
2019-03-09T18:07:48.551Z,15.80
2019-03-09T18:10:26.395Z,15.80
2019-03-09T18:12:55.256Z,15.80
2019-03-09T18:15:23.952Z,15.80
2019-03-09T18:17:52.591Z,15.90
2019-03-09T18:20:21.288Z,15.80
2019-03-09T18:22:49.941Z,15.80
2019-03-09T18:25:18.636Z,15.60
2019-03-09T18:27:47.326Z,15.60
2019-03-09T18:30:15.990Z,15.60
2019-03-09T18:32:44.687Z,15.50
2019-03-09T18:35:13.338Z,15.40
2019-03-09T18:37:42.026Z,15.50
2019-03-09T18:40:13.631Z,15.60
2019-03-09T18:42:42.320Z,15.50
2019-03-09T18:45:19.244Z,15.50
2019-03-09T18:47:47.935Z,15.50
2019-03-09T18:50:16.593Z,15.30
2019-03-09T18:52:45.279Z,15.30
2019-03-09T18:55:13.955Z,15.30
2019-03-09T18:57:42.645Z,15.30
2019-03-09T19:00:18.807Z,15.20
2019-03-09T19:02:47.514Z,15.20
2019-03-09T19:05:16.182Z,15.10
2019-03-09T19:07:44.813Z,15.00
2019-03-09T19:10:22.505Z,14.90
2019-03-09T19:12:51.139Z,14.90
2019-03-09T19:15:19.825Z,14.80
2019-03-09T19:17:48.475Z,14.80
2019-03-09T19:20:18.769Z,14.80
2019-03-09T19:22:47.469Z,14.90
2019-03-09T19:25:16.303Z,14.90
2019-03-09T19:27:45.212Z,14.90
2019-03-09T19:30:19.176Z,14.90
2019-03-09T19:32:48.186Z,14.90
2019-03-09T19:35:17.106Z,14.90
2019-03-09T19:37:46.163Z,14.90
2019-03-09T19:40:17.408Z,15.00
2019-03-09T19:42:46.385Z,14.90
2019-03-09T19:45:16.781Z,14.80
2019-03-09T19:47:45.645Z,14.80
2019-03-09T19:50:17.439Z,14.60
2019-03-09T19:52:46.135Z,14.70
2019-03-09T19:55:14.870Z,14.70
2019-03-09T19:57:43.556Z,14.70
2019-03-09T20:00:17.060Z,14.70
2019-03-09T20:02:45.731Z,14.60
2019-03-09T20:05:14.383Z,14.70
2019-03-09T20:07:43.115Z,14.60
2019-03-09T20:10:22.213Z,14.50
2019-03-09T20:12:50.864Z,14.40
2019-03-09T20:15:20.510Z,14.20
2019-03-09T20:17:49.249Z,14.20
2019-03-09T20:20:21.075Z,14.20
2019-03-09T20:22:49.771Z,14.10
2019-03-09T20:25:18.406Z,14.10
2019-03-09T20:27:47.117Z,14.10
2019-03-09T20:30:21.662Z,14.10
2019-03-09T20:32:50.388Z,14.10
2019-03-09T20:35:19.010Z,14.00
2019-03-09T20:37:47.665Z,13.90
2019-03-09T20:40:17.853Z,14.00
2019-03-09T20:42:46.528Z,14.00
2019-03-09T20:45:24.387Z,14.00
2019-03-09T20:47:53.004Z,14.00
2019-03-09T20:50:23.335Z,13.80
2019-03-09T20:52:51.977Z,13.80
2019-03-09T20:55:20.624Z,13.80
2019-03-09T20:57:49.318Z,13.70
2019-03-09T21:00:19.954Z,13.60
2019-03-09T21:02:48.843Z,13.70
2019-03-09T21:05:17.491Z,13.60
2019-03-09T21:07:46.122Z,13.60
2019-03-09T21:10:18.903Z,13.50
2019-03-09T21:13:01.771Z,13.40
2019-03-09T21:15:30.493Z,13.40
2019-03-09T21:17:59.395Z,13.30
2019-03-09T21:20:28.037Z,13.20
2019-03-09T21:22:56.734Z,13.20
2019-03-09T21:25:25.388Z,13.20
2019-03-09T21:27:54.072Z,13.20
2019-03-09T21:30:22.805Z,13.20
2019-03-09T21:32:51.466Z,13.10
2019-03-09T21:35:20.126Z,13.00
2019-03-09T21:37:48.772Z,12.90
2019-03-09T21:40:17.451Z,12.90
2019-03-09T21:42:46.124Z,12.90
2019-03-09T21:45:15.346Z,12.80
2019-03-09T21:47:43.980Z,12.60
2019-03-09T21:50:15.091Z,12.60
2019-03-09T21:52:43.826Z,12.60
2019-03-09T21:55:13.659Z,12.70
2019-03-09T21:57:42.381Z,12.70
2019-03-09T22:00:18.409Z,12.70
2019-03-09T22:02:47.123Z,12.70
2019-03-09T22:05:15.787Z,12.70
2019-03-09T22:07:44.508Z,12.80
2019-03-09T22:10:13.791Z,12.90
2019-03-09T22:12:42.423Z,12.90
2019-03-09T22:15:17.033Z,12.80
2019-03-09T22:17:45.702Z,12.80
2019-03-09T22:20:14.963Z,12.70
2019-03-09T22:22:43.629Z,12.70
2019-03-09T22:25:13.607Z,12.60
2019-03-09T22:27:42.295Z,12.60
2019-03-09T22:30:14.111Z,12.50
2019-03-09T22:32:42.759Z,12.50
2019-03-09T22:35:13.251Z,12.40
2019-03-09T22:37:41.909Z,12.40
2019-03-09T22:40:12.510Z,12.30
2019-03-09T22:42:41.357Z,12.20
2019-03-09T22:45:13.740Z,12.30
2019-03-09T22:47:42.419Z,12.10
2019-03-09T22:50:16.808Z,12.10
2019-03-09T22:52:45.509Z,12.10
2019-03-09T22:55:14.147Z,12.10
2019-03-09T22:57:42.793Z,12.00
2019-03-09T23:00:14.354Z,12.00
2019-03-09T23:02:44.848Z,12.00
2019-03-09T23:05:13.357Z,12.00
2019-03-09T23:07:42.021Z,11.90
2019-03-09T23:10:13.284Z,11.90
2019-03-09T23:12:41.974Z,11.90
2019-03-09T23:15:13.807Z,11.90
2019-03-09T23:17:42.441Z,12.00
2019-03-09T23:20:13.452Z,11.80
2019-03-09T23:22:42.090Z,11.70
2019-03-09T23:25:11.495Z,11.60
2019-03-09T23:27:40.134Z,11.50
2019-03-09T23:30:19.676Z,11.40
2019-03-09T23:32:48.347Z,11.40
2019-03-09T23:35:17.002Z,11.40
2019-03-09T23:37:46.923Z,11.30
2019-03-09T23:40:20.187Z,11.20
2019-03-09T23:42:48.871Z,11.20
2019-03-09T23:45:19.133Z,11.20
2019-03-09T23:47:47.799Z,11.20
2019-03-09T23:50:17.705Z,11.10
2019-03-09T23:52:46.399Z,11.10
2019-03-09T23:55:21.817Z,11.10
2019-03-09T23:57:45.933Z,10.90
